Clear Lake, IA

12:13 AM CDT on October 16, 2019 (GMT -0500)
Premier Technologies Services LLC | | Change Station

Elev 1219 ft 43.18 °N, 93.39 °W | Updated 13 minutes ago

Overcast
Overcast
42.3 °F
Feels Like 36 °F
N
12
Wind Variable Wind from NW
Gusts 15.0 mph

Today
High -- | Low -- °F
--% Chance of Precip.
Yesterday
High -- | Low -- °F
Precip. -- in
Pressure 30.06 in
Visibility 10.0 miles
Clouds Scattered Clouds 1800 ft
Overcast 3700 ft
Windchill 36 °F
Dew Point 32 °F
Humidity 67%
Rainfall 0.00 in
Snow Depth Not available.
7:28 AM 6:29 PM
Waning Gibbous, 95% visible
METAR KMCW 160453Z AUTO 31017G24KT 10SM SCT018 OVC037 06/02 A3006 RMK AO2 SLP179 T00610022 $
Pressure 30.06 in
Visibility 10.0 miles
Clouds Scattered Clouds 1800 ft
Overcast 3700 ft
Windchill 36 °F
Dew Point 32 °F
Humidity 67%
Rainfall 0.00 in
Snow Depth Not available.
7:28 AM 6:29 PM
Waning Gibbous, 95% visible
METAR KMCW 160453Z AUTO 31017G24KT 10SM SCT018 OVC037 06/02 A3006 RMK AO2 SLP179 T00610022 $

Get Severe Weather Alerts

Thanks for signing up!

Be on the lookout for a verification email in your inbox.

You'll start receiving the daily forecast at 6 AM.

×

10-Day Weather Forecast

Almanac

Astronomy

Oct. 16, 2019 Rise Set
Actual Time
Civil Twilight
Nautical Twilight
Astronomical Twilight
Moon
Length of Visible Light
Length of Day
Tomorrow will be .
, % of the Moon is Illuminated

Today's Extremes

State Highs State Lows

Community

WunderPhotos

Category 6

Welcome to Category 6. This is the collective home for Weather Underground's featured writeups by Dr. Jeff Masters (right), Bob Henson (left), Chris Burt, and other regular contributors.

Nearby

Air Quality

  Air Quality AQ Index Pollutant
Not available.

Snow Depth

Station Depth Elevation

Earthquake Activity

City Distance Mag. Time & Date
Minimum magnitude displayed is 2.5.

Coastal Water Temperatures

Place Temperature

Stations

Nearby Weather Stations

Station Location Temp. Windchill Dew Point Humidity Wind Precip. Elev Updated Type
                   

Watches & Warnings

There are currently no watches in effect.